Terminal Aerodrome Forecast
Issued by NWS

Home | Current Version | Previous Version | Text Only | Print | Product List | Glossary On
Versions: 1 2 3 4 5 6 7 8 9 10 11 12 13 14 15 16 17 18 19 20 21 22 23 24 25 26 27 28 29 30 31
000
FTUS41 KOKX 281449 AAB
TAFTEB
TAF AMD
KTEB 281449Z 2815/2912 12007KT P6SM SCT015 SCT070 BKN200
      TEMPO 2815/2816 BKN015
     FM281900 13010G16KT P6SM SCT070 BKN250
     FM290000 11007KT P6SM SCT015 BKN100
     FM290500 11007KT P6SM VCSH OVC015
     FM290900 10008KT 5SM -RA OVC007
     FM291100 08008KT 2SM RA VCTS OVC007CB=

USA.gov is the U.S. government's official web portal to all federal, state and local government web resources and services.